createdAt,value
2023-03-07T00:00:35.498Z,0.00
2023-03-07T00:01:35.463Z,0.00
2023-03-07T00:02:35.516Z,0.00
2023-03-07T00:03:35.482Z,0.00
2023-03-07T00:04:35.450Z,0.00
2023-03-07T00:05:35.424Z,0.00
2023-03-07T00:06:35.406Z,0.00
2023-03-07T00:07:35.432Z,0.00
2023-03-07T00:08:35.410Z,0.00
2023-03-07T00:09:35.384Z,0.00
2023-03-07T00:10:35.366Z,0.00
2023-03-07T00:11:36.402Z,0.00
2023-03-07T00:12:35.361Z,0.00
2023-03-07T00:13:35.338Z,0.00
2023-03-07T00:14:35.363Z,0.00
2023-03-07T00:15:35.312Z,0.00
2023-03-07T00:16:35.326Z,0.00
2023-03-07T00:17:35.321Z,0.00
2023-03-07T00:18:35.311Z,0.00
2023-03-07T00:19:35.282Z,0.00
2023-03-07T00:20:35.307Z,0.00
2023-03-07T00:21:35.290Z,0.00
2023-03-07T00:22:35.234Z,0.00
2023-03-07T00:23:35.254Z,0.00
2023-03-07T00:24:35.232Z,0.00
2023-03-07T00:25:35.220Z,0.00
2023-03-07T00:26:35.234Z,0.00
2023-03-07T00:27:35.216Z,0.00
2023-03-07T00:28:35.205Z,0.00
2023-03-07T00:29:35.159Z,0.00
2023-03-07T00:30:35.174Z,0.00
2023-03-07T00:31:36.156Z,0.00
2023-03-07T00:32:35.183Z,0.00
2023-03-07T00:33:35.149Z,0.00
2023-03-07T00:34:35.154Z,0.00
2023-03-07T00:35:35.168Z,0.00
2023-03-07T00:36:35.092Z,0.00
2023-03-07T00:37:35.108Z,0.00
2023-03-07T00:38:35.101Z,0.00
2023-03-07T00:39:35.799Z,0.00
2023-03-07T00:40:35.059Z,0.00
2023-03-07T00:41:35.051Z,0.00
2023-03-07T00:42:35.052Z,0.00
2023-03-07T00:43:35.064Z,0.00
2023-03-07T00:44:35.029Z,0.00
2023-03-07T00:45:35.047Z,0.00
2023-03-07T00:46:35.011Z,0.00
2023-03-07T00:47:34.987Z,0.00
2023-03-07T00:48:34.983Z,0.00
2023-03-07T00:49:34.997Z,0.00
2023-03-07T00:50:34.977Z,0.00
2023-03-07T00:51:34.948Z,0.00
2023-03-07T00:52:34.951Z,0.00
2023-03-07T00:53:34.938Z,0.00
2023-03-07T00:54:34.936Z,0.00
2023-03-07T00:55:34.923Z,0.00
2023-03-07T00:56:34.916Z,0.00
2023-03-07T00:57:34.881Z,0.00
2023-03-07T00:58:34.891Z,0.00
2023-03-07T00:59:34.867Z,0.00
2023-03-07T01:00:34.887Z,0.00
2023-03-07T01:01:34.852Z,0.00
2023-03-07T01:02:34.853Z,0.00
2023-03-07T01:03:34.810Z,0.00
2023-03-07T01:04:34.842Z,0.00
2023-03-07T01:05:34.812Z,0.00
2023-03-07T01:06:34.806Z,0.00
2023-03-07T01:07:34.779Z,0.00
2023-03-07T01:08:34.769Z,0.00
2023-03-07T01:09:34.788Z,0.00
2023-03-07T01:10:34.774Z,0.00
2023-03-07T01:11:34.741Z,0.00
2023-03-07T01:12:34.724Z,0.00
2023-03-07T01:13:34.739Z,0.00
2023-03-07T01:14:34.717Z,0.00
2023-03-07T01:15:34.697Z,0.00
2023-03-07T01:16:34.770Z,0.00
2023-03-07T01:17:34.694Z,0.00
2023-03-07T01:18:34.663Z,0.00
2023-03-07T01:19:34.675Z,0.00
2023-03-07T01:20:34.651Z,0.00
2023-03-07T01:21:34.626Z,0.00
2023-03-07T01:22:34.624Z,0.00
2023-03-07T01:23:34.626Z,0.00
2023-03-07T01:24:34.628Z,0.00
2023-03-07T01:25:34.602Z,0.00
2023-03-07T01:26:34.587Z,0.00
2023-03-07T01:27:34.582Z,0.00
2023-03-07T01:28:34.550Z,0.00
2023-03-07T01:29:34.561Z,0.00
2023-03-07T01:30:34.559Z,0.00
2023-03-07T01:31:34.591Z,0.00
2023-03-07T01:32:34.564Z,0.00
2023-03-07T01:33:34.523Z,0.00
2023-03-07T01:34:34.508Z,0.00
2023-03-07T01:35:34.540Z,0.00
2023-03-07T01:36:34.575Z,0.00
2023-03-07T01:37:34.459Z,0.00
2023-03-07T01:38:34.480Z,0.00
2023-03-07T01:39:34.445Z,0.00
2023-03-07T01:40:34.447Z,0.00
2023-03-07T01:41:34.465Z,0.00
2023-03-07T01:42:34.412Z,0.00
2023-03-07T01:43:34.431Z,0.00
2023-03-07T01:44:34.399Z,0.00
2023-03-07T01:45:34.449Z,0.00
2023-03-07T01:46:34.369Z,0.00
2023-03-07T01:47:34.363Z,0.00
2023-03-07T01:48:34.358Z,0.00
2023-03-07T01:49:34.367Z,0.00
2023-03-07T01:50:34.376Z,0.00
2023-03-07T01:51:34.310Z,0.00
2023-03-07T01:52:34.402Z,0.00
2023-03-07T01:53:34.303Z,0.00
2023-03-07T01:54:34.284Z,0.00
2023-03-07T01:55:34.268Z,0.00
2023-03-07T01:56:34.275Z,0.00
2023-03-07T01:57:34.277Z,0.00
2023-03-07T01:58:34.217Z,0.00
2023-03-07T01:59:35.263Z,0.00
2023-03-07T02:00:34.230Z,0.00
2023-03-07T02:01:34.278Z,0.00
2023-03-07T02:02:34.205Z,0.00
2023-03-07T02:03:34.195Z,0.00
2023-03-07T02:04:34.247Z,0.00
2023-03-07T02:05:35.162Z,0.00
2023-03-07T02:06:34.162Z,0.00
2023-03-07T02:07:34.167Z,0.00
2023-03-07T02:08:34.133Z,0.00
2023-03-07T02:09:34.122Z,0.00
2023-03-07T02:10:34.137Z,0.00
2023-03-07T02:11:34.093Z,0.00
2023-03-07T02:12:34.097Z,0.00
2023-03-07T02:13:34.080Z,0.00
2023-03-07T02:14:34.085Z,0.00
2023-03-07T02:15:34.138Z,0.00
2023-03-07T02:16:34.045Z,0.00
2023-03-07T02:17:34.040Z,0.00
2023-03-07T02:18:34.026Z,0.00
2023-03-07T02:19:34.029Z,0.00
2023-03-07T02:20:33.999Z,0.00
2023-03-07T02:21:33.994Z,0.00
2023-03-07T02:22:33.999Z,0.00
2023-03-07T02:23:33.972Z,0.00
2023-03-07T02:24:33.979Z,0.00
2023-03-07T02:25:33.955Z,0.00
2023-03-07T02:26:33.936Z,0.00
2023-03-07T02:27:33.934Z,0.00
2023-03-07T02:28:33.937Z,0.00
2023-03-07T02:29:33.912Z,0.00
2023-03-07T02:30:33.901Z,0.00
2023-03-07T02:31:33.888Z,0.00
2023-03-07T02:32:33.894Z,0.00
2023-03-07T02:33:33.886Z,0.00
2023-03-07T02:34:33.876Z,0.00
2023-03-07T02:35:33.868Z,0.00
2023-03-07T02:36:33.839Z,0.00
2023-03-07T02:37:33.843Z,0.00
2023-03-07T02:38:33.815Z,0.00
2023-03-07T02:39:33.820Z,0.00
2023-03-07T02:40:33.818Z,0.00
2023-03-07T02:41:33.808Z,0.00
2023-03-07T02:42:33.794Z,0.00
2023-03-07T02:43:33.766Z,0.00
2023-03-07T02:44:33.768Z,0.00
2023-03-07T02:45:33.749Z,0.00
2023-03-07T02:46:33.755Z,0.00
2023-03-07T02:47:33.740Z,0.00
2023-03-07T02:48:33.714Z,0.00
2023-03-07T02:49:33.719Z,0.00
2023-03-07T02:50:33.694Z,0.00
2023-03-07T02:51:33.684Z,0.00
2023-03-07T02:52:33.667Z,0.00
2023-03-07T02:53:33.661Z,0.00
2023-03-07T02:54:33.665Z,0.00
2023-03-07T02:55:33.671Z,0.00
2023-03-07T02:56:33.634Z,0.00
2023-03-07T02:57:33.610Z,0.00
2023-03-07T02:58:33.611Z,0.00
2023-03-07T02:59:33.599Z,0.00
2023-03-07T03:00:33.608Z,0.00
2023-03-07T03:01:33.599Z,0.00
2023-03-07T03:02:33.574Z,0.00
2023-03-07T03:03:33.574Z,0.00
2023-03-07T03:04:33.571Z,0.00
2023-03-07T03:05:33.536Z,0.00
2023-03-07T03:06:33.532Z,0.00
2023-03-07T03:07:33.524Z,0.00
2023-03-07T03:08:33.512Z,0.00
2023-03-07T03:09:33.525Z,0.00
2023-03-07T03:10:33.490Z,0.00
2023-03-07T03:11:33.498Z,0.00
2023-03-07T03:12:33.460Z,0.00
2023-03-07T03:13:33.458Z,0.00
2023-03-07T03:14:33.457Z,0.00
2023-03-07T03:15:33.456Z,0.00
2023-03-07T03:16:33.515Z,0.00
2023-03-07T03:17:33.417Z,0.00
2023-03-07T03:18:33.406Z,0.00
2023-03-07T03:19:33.401Z,0.00
2023-03-07T03:20:33.378Z,0.00
2023-03-07T03:21:33.389Z,0.00
2023-03-07T03:22:33.356Z,0.00
2023-03-07T03:23:33.363Z,0.00
2023-03-07T03:24:33.352Z,0.00
2023-03-07T03:25:33.325Z,0.00
2023-03-07T03:26:33.335Z,0.00
2023-03-07T03:27:33.295Z,0.00
2023-03-07T03:28:33.299Z,0.00
2023-03-07T03:29:33.281Z,0.00
2023-03-07T03:30:33.276Z,0.00
2023-03-07T03:31:33.304Z,0.00
2023-03-07T03:32:33.322Z,0.00
2023-03-07T03:33:33.253Z,0.00
2023-03-07T03:34:33.224Z,0.00
2023-03-07T03:35:33.230Z,0.00
2023-03-07T03:36:33.206Z,0.00
2023-03-07T03:37:33.219Z,0.00
2023-03-07T03:38:33.183Z,0.00
2023-03-07T03:39:33.181Z,0.00
2023-03-07T03:40:33.174Z,0.00
2023-03-07T03:41:33.158Z,0.00
2023-03-07T03:42:33.134Z,0.00
2023-03-07T03:43:34.136Z,0.00
2023-03-07T03:44:33.137Z,0.00
2023-03-07T03:45:33.110Z,0.00
2023-03-07T03:46:33.137Z,0.00
2023-03-07T03:47:33.080Z,0.00
2023-03-07T03:48:33.098Z,0.00
2023-03-07T03:49:33.098Z,0.00
2023-03-07T03:50:33.063Z,0.00
2023-03-07T03:51:33.053Z,0.00
2023-03-07T03:52:33.038Z,0.00
2023-03-07T03:53:33.029Z,0.00
2023-03-07T03:54:33.033Z,0.00
2023-03-07T03:55:32.998Z,0.00
2023-03-07T03:56:32.985Z,0.00
2023-03-07T03:57:32.996Z,0.00
2023-03-07T03:58:32.955Z,0.00
2023-03-07T03:59:32.978Z,0.00
2023-03-07T04:00:32.942Z,0.00
2023-03-07T04:01:32.938Z,0.00
2023-03-07T04:02:33.031Z,0.00
2023-03-07T04:03:32.908Z,0.00
2023-03-07T04:04:32.916Z,0.00
2023-03-07T04:05:32.902Z,0.00
2023-03-07T04:06:32.900Z,0.00
2023-03-07T04:07:32.897Z,0.00
2023-03-07T04:08:32.861Z,0.00
2023-03-07T04:09:32.866Z,0.00
2023-03-07T04:10:32.856Z,0.00
2023-03-07T04:11:32.860Z,0.00
2023-03-07T04:12:32.828Z,0.00
2023-03-07T04:13:32.818Z,0.00
2023-03-07T04:14:32.816Z,0.00
2023-03-07T04:15:32.798Z,0.00
2023-03-07T04:16:32.845Z,0.00
2023-03-07T04:17:32.770Z,0.00
2023-03-07T04:18:32.761Z,0.00
2023-03-07T04:19:32.741Z,0.00
2023-03-07T04:20:32.777Z,0.00
2023-03-07T04:21:32.728Z,0.00
2023-03-07T04:22:32.710Z,0.00
2023-03-07T04:23:32.699Z,0.00
2023-03-07T04:24:32.693Z,0.00
2023-03-07T04:25:32.683Z,0.00
2023-03-07T04:26:32.657Z,0.00
2023-03-07T04:27:32.659Z,0.00
2023-03-07T04:28:32.654Z,0.00
2023-03-07T04:29:32.650Z,0.00
2023-03-07T04:30:32.630Z,0.00
2023-03-07T04:31:32.653Z,0.00
2023-03-07T04:32:32.642Z,0.00
2023-03-07T04:33:32.598Z,0.00
2023-03-07T04:34:32.596Z,0.00
2023-03-07T04:35:32.607Z,0.00
2023-03-07T04:36:32.556Z,0.00
2023-03-07T04:37:32.566Z,0.00
2023-03-07T04:38:32.550Z,0.00
2023-03-07T04:39:32.549Z,0.00
2023-03-07T04:40:32.522Z,0.00
2023-03-07T04:41:32.522Z,0.00
2023-03-07T04:42:32.497Z,0.00
2023-03-07T04:43:32.506Z,0.00
2023-03-07T04:44:32.517Z,0.00
2023-03-07T04:45:32.468Z,0.00
2023-03-07T04:46:32.464Z,0.00
2023-03-07T04:47:32.439Z,0.00
2023-03-07T04:48:32.445Z,0.00
2023-03-07T04:49:32.425Z,0.00
2023-03-07T04:50:32.426Z,0.00
2023-03-07T04:51:32.398Z,0.00
2023-03-07T04:52:32.389Z,0.00
2023-03-07T04:53:32.393Z,0.00
2023-03-07T04:54:33.391Z,0.00
2023-03-07T04:55:32.359Z,0.00
2023-03-07T04:56:32.350Z,0.00
2023-03-07T04:57:32.341Z,0.00
2023-03-07T04:58:32.347Z,0.00
2023-03-07T04:59:32.338Z,0.00
2023-03-07T05:00:32.306Z,0.00
2023-03-07T05:01:32.375Z,0.00
2023-03-07T05:02:32.284Z,0.00
2023-03-07T05:03:32.276Z,0.00
2023-03-07T05:04:32.347Z,0.00
2023-03-07T05:05:32.259Z,0.00
2023-03-07T05:06:32.253Z,0.00
2023-03-07T05:07:32.256Z,0.00
2023-03-07T05:08:32.249Z,0.00
2023-03-07T05:09:32.229Z,0.00
2023-03-07T05:10:32.221Z,0.00
2023-03-07T05:11:32.189Z,0.00
2023-03-07T05:12:32.213Z,0.00
2023-03-07T05:13:32.201Z,0.00
2023-03-07T05:14:32.200Z,0.00
2023-03-07T05:15:32.188Z,0.00
2023-03-07T05:16:32.160Z,0.00
2023-03-07T05:17:32.169Z,0.00
2023-03-07T05:18:32.130Z,0.00
2023-03-07T05:19:32.147Z,0.00
2023-03-07T05:20:32.106Z,0.00
2023-03-07T05:21:32.095Z,0.00
2023-03-07T05:22:32.085Z,0.00
2023-03-07T05:23:32.098Z,0.00
2023-03-07T05:24:32.090Z,0.00
2023-03-07T05:25:32.056Z,0.00
2023-03-07T05:26:32.042Z,0.00
2023-03-07T05:27:32.037Z,0.00
2023-03-07T05:28:32.050Z,0.00
2023-03-07T05:29:32.041Z,0.00
2023-03-07T05:30:31.989Z,0.00
2023-03-07T05:31:32.048Z,0.00
2023-03-07T05:32:32.010Z,0.00
2023-03-07T05:33:31.961Z,0.00
2023-03-07T05:34:31.969Z,0.00
2023-03-07T05:35:31.964Z,0.00
2023-03-07T05:36:31.934Z,0.00
2023-03-07T05:37:31.951Z,0.00
2023-03-07T05:38:31.909Z,0.00
2023-03-07T05:39:31.900Z,0.00
2023-03-07T05:40:31.894Z,0.00
2023-03-07T05:41:31.910Z,0.00
2023-03-07T05:42:31.872Z,0.00
2023-03-07T05:43:31.871Z,0.00
2023-03-07T05:44:33.995Z,0.00
2023-03-07T05:45:31.831Z,0.00
2023-03-07T05:46:31.857Z,0.00
2023-03-07T05:47:31.825Z,0.00
2023-03-07T05:48:31.818Z,0.00
2023-03-07T05:49:31.826Z,0.00
2023-03-07T05:50:31.810Z,0.00
2023-03-07T05:51:31.775Z,0.00
2023-03-07T05:52:31.881Z,0.00
2023-03-07T05:53:31.780Z,0.00
2023-03-07T05:54:31.770Z,0.00
2023-03-07T05:55:31.743Z,0.00
2023-03-07T05:56:31.748Z,0.00
2023-03-07T05:57:31.719Z,0.00
2023-03-07T05:58:31.724Z,0.00
2023-03-07T05:59:31.699Z,0.00
2023-03-07T06:00:31.699Z,0.00
2023-03-07T06:01:31.699Z,0.00
2023-03-07T06:02:31.696Z,0.00
2023-03-07T06:03:31.664Z,0.00
2023-03-07T06:04:31.652Z,0.00
2023-03-07T06:05:31.660Z,0.00
2023-03-07T06:06:31.626Z,0.00
2023-03-07T06:07:31.663Z,0.00
2023-03-07T06:08:31.612Z,0.00
2023-03-07T06:09:31.605Z,5.62
2023-03-07T06:10:31.605Z,5.62
2023-03-07T06:11:31.587Z,5.62
2023-03-07T06:12:31.569Z,5.62
2023-03-07T06:13:31.561Z,5.62
2023-03-07T06:14:31.550Z,5.62
2023-03-07T06:15:31.565Z,5.62
2023-03-07T06:16:31.545Z,5.62
2023-03-07T06:17:31.524Z,5.62
2023-03-07T06:18:31.508Z,5.62
2023-03-07T06:19:31.514Z,5.62
2023-03-07T06:20:32.493Z,5.62
2023-03-07T06:21:31.497Z,5.62
2023-03-07T06:22:31.475Z,5.62
2023-03-07T06:23:31.486Z,5.62
2023-03-07T06:24:31.464Z,5.62
2023-03-07T06:25:31.456Z,11.25
2023-03-07T06:26:31.427Z,11.25
2023-03-07T06:27:31.451Z,11.25
2023-03-07T06:28:32.920Z,11.25
2023-03-07T06:29:32.404Z,11.25
2023-03-07T06:30:31.381Z,11.25
2023-03-07T06:31:31.527Z,11.25
2023-03-07T06:32:31.427Z,11.25
2023-03-07T06:33:31.369Z,11.25
2023-03-07T06:34:31.359Z,16.88
2023-03-07T06:35:31.351Z,16.88
2023-03-07T06:36:31.337Z,16.88
2023-03-07T06:37:31.326Z,16.88
2023-03-07T06:38:32.310Z,16.88
2023-03-07T06:39:31.536Z,16.88
2023-03-07T06:40:32.399Z,16.88
2023-03-07T06:41:31.279Z,16.88
2023-03-07T06:42:31.269Z,16.88
2023-03-07T06:43:31.260Z,16.88
2023-03-07T06:44:31.247Z,16.88
2023-03-07T06:45:31.273Z,16.88
2023-03-07T06:46:31.226Z,16.88
2023-03-07T06:47:31.223Z,22.50
2023-03-07T06:48:31.206Z,16.88
2023-03-07T06:49:31.193Z,16.88
2023-03-07T06:50:35.457Z,16.88
2023-03-07T06:51:32.186Z,22.50
2023-03-07T06:52:31.170Z,22.50
2023-03-07T06:53:31.136Z,22.50
2023-03-07T06:54:31.150Z,22.50
2023-03-07T06:55:31.124Z,28.12
2023-03-07T06:56:31.118Z,28.12
2023-03-07T06:57:31.120Z,28.12
2023-03-07T06:58:31.098Z,28.12
2023-03-07T06:59:31.096Z,22.50
2023-03-07T07:00:31.084Z,22.50
2023-03-07T07:01:31.069Z,22.50
2023-03-07T07:02:31.165Z,28.12
2023-03-07T07:03:31.052Z,22.50
2023-03-07T07:04:31.074Z,22.50
2023-03-07T07:05:31.026Z,22.50
2023-03-07T07:06:31.011Z,28.12
2023-03-07T07:07:30.998Z,28.12
2023-03-07T07:08:30.990Z,28.12
2023-03-07T07:09:30.975Z,33.75
2023-03-07T07:10:30.982Z,28.12
2023-03-07T07:11:30.993Z,28.12
2023-03-07T07:12:30.963Z,28.12
2023-03-07T07:13:30.940Z,28.12
2023-03-07T07:14:30.922Z,28.12
2023-03-07T07:15:30.915Z,28.12
2023-03-07T07:16:30.954Z,28.12
2023-03-07T07:17:30.901Z,33.75
2023-03-07T07:18:30.870Z,33.75
2023-03-07T07:19:30.879Z,33.75
2023-03-07T07:20:30.861Z,39.38
2023-03-07T07:21:30.857Z,39.38
2023-03-07T07:22:30.832Z,45.00
2023-03-07T07:23:30.829Z,39.38
2023-03-07T07:24:30.818Z,39.38
2023-03-07T07:25:30.796Z,45.00
2023-03-07T07:26:30.806Z,45.00
2023-03-07T07:27:30.804Z,45.00
2023-03-07T07:28:30.782Z,45.00
2023-03-07T07:29:30.790Z,50.62
2023-03-07T07:30:30.762Z,50.62
2023-03-07T07:31:30.768Z,50.62
2023-03-07T07:32:30.854Z,45.00
2023-03-07T07:33:30.813Z,50.62
2023-03-07T07:34:30.720Z,45.00
2023-03-07T07:35:30.743Z,50.62
2023-03-07T07:36:30.712Z,50.62
2023-03-07T07:37:30.680Z,45.00
2023-03-07T07:38:30.672Z,50.62
2023-03-07T07:39:30.669Z,50.62
2023-03-07T07:40:30.654Z,50.62
2023-03-07T07:41:30.651Z,50.62
2023-03-07T07:42:32.277Z,45.00
2023-03-07T07:43:31.628Z,39.38
2023-03-07T07:44:30.615Z,45.00
2023-03-07T07:45:30.604Z,50.62
2023-03-07T07:46:30.621Z,56.25
2023-03-07T07:47:30.582Z,56.25
2023-03-07T07:48:30.570Z,61.88
2023-03-07T07:49:30.576Z,61.88
2023-03-07T07:50:30.557Z,61.88
2023-03-07T07:51:30.537Z,61.88
2023-03-07T07:52:30.522Z,56.25
2023-03-07T07:53:30.518Z,56.25
2023-03-07T07:54:30.529Z,56.25
2023-03-07T07:55:30.496Z,61.88
2023-03-07T07:56:30.487Z,61.88
2023-03-07T07:57:30.478Z,61.88
2023-03-07T07:58:30.466Z,61.88
2023-03-07T07:59:30.477Z,61.88
2023-03-07T08:00:30.492Z,61.88
2023-03-07T08:01:30.453Z,56.25
2023-03-07T08:02:30.461Z,56.25
2023-03-07T08:03:30.515Z,61.88
2023-03-07T08:04:30.412Z,56.25
2023-03-07T08:05:30.402Z,56.25
2023-03-07T08:06:30.377Z,56.25
2023-03-07T08:07:30.392Z,50.62
2023-03-07T08:08:30.364Z,50.62
2023-03-07T08:09:30.357Z,50.62
2023-03-07T08:10:30.336Z,56.25
2023-03-07T08:11:30.345Z,56.25
2023-03-07T08:12:30.349Z,56.25
2023-03-07T08:13:30.304Z,56.25
2023-03-07T08:14:30.304Z,56.25
2023-03-07T08:15:30.351Z,56.25
2023-03-07T08:16:30.276Z,56.25
2023-03-07T08:17:30.278Z,56.25
2023-03-07T08:18:30.279Z,50.62
2023-03-07T08:19:30.243Z,50.62
2023-03-07T08:20:30.251Z,56.25
2023-03-07T08:21:30.240Z,50.62
2023-03-07T08:22:30.230Z,56.25
2023-03-07T08:23:30.230Z,56.25
2023-03-07T08:24:40.218Z,50.62
2023-03-07T08:25:32.216Z,56.25
2023-03-07T08:26:30.186Z,61.88
2023-03-07T08:27:30.177Z,61.88
2023-03-07T08:28:30.187Z,67.50
2023-03-07T08:29:30.152Z,78.75
2023-03-07T08:30:30.161Z,78.75
2023-03-07T08:31:30.171Z,78.75
2023-03-07T08:32:30.167Z,73.12
2023-03-07T08:33:30.112Z,67.50
2023-03-07T08:34:30.117Z,67.50
2023-03-07T08:35:30.106Z,67.50
2023-03-07T08:36:30.085Z,61.88
2023-03-07T08:37:30.113Z,67.50
2023-03-07T08:38:30.094Z,73.12
2023-03-07T08:39:30.060Z,78.75
2023-03-07T08:40:30.082Z,78.75
2023-03-07T08:41:30.033Z,73.12
2023-03-07T08:42:30.121Z,73.12
2023-03-07T08:43:30.020Z,90.00
2023-03-07T08:44:30.008Z,84.38
2023-03-07T08:45:30.014Z,84.38
2023-03-07T08:46:30.013Z,90.00
2023-03-07T08:47:29.970Z,101.25
2023-03-07T08:48:29.981Z,112.50
2023-03-07T08:49:29.956Z,118.12
2023-03-07T08:50:29.948Z,123.75
2023-03-07T08:51:29.941Z,140.62
2023-03-07T08:52:29.914Z,146.25
2023-03-07T08:53:29.916Z,123.75
2023-03-07T08:54:29.912Z,123.75
2023-03-07T08:55:29.878Z,118.12
2023-03-07T08:56:29.860Z,123.75
2023-03-07T08:57:29.872Z,118.12
2023-03-07T08:58:29.861Z,118.12
2023-03-07T08:59:29.841Z,129.38
2023-03-07T09:00:29.822Z,129.38
2023-03-07T09:01:29.855Z,135.00
2023-03-07T09:02:29.834Z,140.62
2023-03-07T09:03:29.802Z,146.25
2023-03-07T09:04:29.799Z,146.25
2023-03-07T09:05:29.770Z,146.25
2023-03-07T09:06:29.778Z,168.75
2023-03-07T09:07:29.759Z,174.38
2023-03-07T09:08:29.752Z,146.25
2023-03-07T09:09:29.730Z,129.38
2023-03-07T09:10:29.727Z,135.00
2023-03-07T09:11:29.737Z,163.12
2023-03-07T09:12:29.725Z,146.25
2023-03-07T09:13:29.698Z,123.75
2023-03-07T09:14:29.671Z,129.38
2023-03-07T09:15:29.696Z,157.50
2023-03-07T09:16:29.686Z,174.38
2023-03-07T09:17:29.654Z,151.88
2023-03-07T09:18:31.612Z,123.75
2023-03-07T09:19:30.629Z,140.62
2023-03-07T09:20:29.620Z,146.25
2023-03-07T09:21:29.613Z,163.12
2023-03-07T09:22:29.612Z,146.25
2023-03-07T09:23:29.588Z,112.50
2023-03-07T09:24:29.580Z,123.75
2023-03-07T09:25:29.570Z,123.75
2023-03-07T09:26:29.584Z,140.62
2023-03-07T09:27:29.604Z,135.00
2023-03-07T09:28:29.543Z,129.38
2023-03-07T09:29:29.526Z,151.88
2023-03-07T09:30:29.531Z,135.00
2023-03-07T09:31:29.549Z,129.38
2023-03-07T09:32:29.553Z,135.00
2023-03-07T09:33:29.501Z,135.00
2023-03-07T09:34:29.489Z,146.25
2023-03-07T09:35:29.499Z,157.50
2023-03-07T09:36:29.487Z,196.88
2023-03-07T09:37:29.477Z,247.50
2023-03-07T09:38:29.454Z,225.00
2023-03-07T09:39:29.443Z,219.38
2023-03-07T09:40:29.454Z,202.50
2023-03-07T09:41:29.457Z,208.12
2023-03-07T09:42:29.434Z,180.00
2023-03-07T09:43:29.393Z,168.75
2023-03-07T09:44:29.395Z,146.25
2023-03-07T09:45:29.400Z,129.38
2023-03-07T09:46:29.379Z,135.00
2023-03-07T09:47:29.355Z,151.88
2023-03-07T09:48:29.363Z,174.38
2023-03-07T09:49:29.355Z,213.75
2023-03-07T09:50:29.326Z,191.25
2023-03-07T09:51:29.341Z,185.62
2023-03-07T09:52:29.327Z,185.62
2023-03-07T09:53:29.317Z,196.88
2023-03-07T09:54:29.313Z,213.75
2023-03-07T09:55:29.285Z,236.25
2023-03-07T09:56:29.287Z,230.62
2023-03-07T09:57:29.280Z,185.62
2023-03-07T09:58:29.258Z,174.38
2023-03-07T09:59:29.248Z,174.38
2023-03-07T10:00:29.230Z,185.62
2023-03-07T10:01:29.229Z,191.25
2023-03-07T10:02:29.241Z,191.25
2023-03-07T10:03:29.264Z,191.25
2023-03-07T10:04:29.214Z,191.25
2023-03-07T10:05:29.185Z,219.38
2023-03-07T10:06:29.190Z,253.12
2023-03-07T10:07:29.160Z,258.75
2023-03-07T10:08:29.148Z,185.62
2023-03-07T10:09:29.205Z,180.00
2023-03-07T10:10:29.130Z,185.62
2023-03-07T10:11:30.197Z,151.88
2023-03-07T10:12:29.129Z,135.00
2023-03-07T10:13:29.098Z,123.75
2023-03-07T10:14:29.110Z,123.75
2023-03-07T10:15:29.149Z,151.88
2023-03-07T10:16:29.095Z,168.75
2023-03-07T10:17:29.081Z,180.00
2023-03-07T10:18:29.067Z,180.00
2023-03-07T10:19:29.040Z,168.75
2023-03-07T10:20:29.034Z,213.75
2023-03-07T10:21:29.029Z,191.25
2023-03-07T10:22:29.022Z,151.88
2023-03-07T10:23:29.025Z,180.00
2023-03-07T10:24:29.074Z,163.12
2023-03-07T10:25:28.987Z,146.25
2023-03-07T10:26:28.989Z,146.25
2023-03-07T10:27:28.978Z,146.25
2023-03-07T10:28:28.933Z,185.62
2023-03-07T10:29:29.931Z,180.00
2023-03-07T10:30:28.925Z,191.25
2023-03-07T10:31:29.050Z,196.88
2023-03-07T10:32:28.926Z,219.38
2023-03-07T10:33:28.905Z,185.62
2023-03-07T10:34:30.757Z,185.62
2023-03-07T10:35:28.874Z,185.62
2023-03-07T10:36:28.873Z,202.50
2023-03-07T10:37:28.845Z,230.62
2023-03-07T10:38:28.834Z,213.75
2023-03-07T10:39:28.847Z,241.88
2023-03-07T10:40:28.816Z,225.00
2023-03-07T10:41:28.829Z,247.50
2023-03-07T10:42:28.801Z,241.88
2023-03-07T10:43:28.786Z,213.75
2023-03-07T10:44:28.777Z,191.25
2023-03-07T10:45:28.793Z,191.25
2023-03-07T10:46:28.797Z,213.75
2023-03-07T10:47:28.743Z,196.88
2023-03-07T10:48:28.738Z,202.50
2023-03-07T10:49:28.736Z,241.88
2023-03-07T10:50:28.737Z,236.25
2023-03-07T10:51:28.718Z,225.00
2023-03-07T10:52:28.704Z,208.12
2023-03-07T10:53:28.687Z,191.25
2023-03-07T10:54:30.190Z,208.12
2023-03-07T10:55:29.659Z,208.12
2023-03-07T10:56:28.651Z,163.12
2023-03-07T10:57:28.661Z,180.00
2023-03-07T10:58:28.632Z,202.50
2023-03-07T10:59:28.634Z,219.38
2023-03-07T11:00:28.621Z,225.00
2023-03-07T11:01:28.618Z,241.88
2023-03-07T11:02:28.594Z,275.62
2023-03-07T11:03:28.569Z,275.62
2023-03-07T11:04:28.590Z,303.75
2023-03-07T11:05:28.571Z,371.25
2023-03-07T11:06:28.566Z,337.50
2023-03-07T11:07:28.547Z,320.62
2023-03-07T11:08:28.521Z,270.00
2023-03-07T11:09:28.511Z,292.50
2023-03-07T11:10:28.495Z,320.62
2023-03-07T11:11:28.518Z,292.50
2023-03-07T11:12:28.504Z,281.25
2023-03-07T11:13:28.467Z,247.50
2023-03-07T11:14:28.469Z,236.25
2023-03-07T11:15:28.455Z,230.62
2023-03-07T11:16:29.543Z,281.25
2023-03-07T11:17:28.489Z,298.12
2023-03-07T11:18:28.438Z,270.00
2023-03-07T11:19:28.406Z,247.50
2023-03-07T11:20:30.312Z,270.00
2023-03-07T11:21:29.412Z,264.38
2023-03-07T11:22:28.403Z,258.75
2023-03-07T11:23:28.380Z,213.75
2023-03-07T11:24:28.411Z,230.62
2023-03-07T11:25:28.370Z,253.12
2023-03-07T11:26:29.898Z,253.12
2023-03-07T11:27:29.363Z,264.38
2023-03-07T11:28:28.338Z,225.00
2023-03-07T11:29:28.349Z,219.38
2023-03-07T11:30:28.311Z,241.88
2023-03-07T11:31:28.348Z,219.38
2023-03-07T11:32:28.330Z,208.12
2023-03-07T11:33:28.270Z,208.12
2023-03-07T11:34:28.275Z,225.00
2023-03-07T11:35:28.261Z,196.88
2023-03-07T11:36:28.231Z,191.25
2023-03-07T11:37:28.285Z,196.88
2023-03-07T11:38:28.255Z,208.12
2023-03-07T11:39:28.225Z,208.12
2023-03-07T11:40:28.202Z,230.62
2023-03-07T11:41:28.201Z,213.75
2023-03-07T11:42:28.188Z,219.38
2023-03-07T11:43:28.169Z,241.88
2023-03-07T11:44:28.169Z,286.88
2023-03-07T11:45:29.158Z,326.25
2023-03-07T11:46:28.190Z,270.00
2023-03-07T11:47:28.163Z,270.00
2023-03-07T11:48:28.138Z,270.00
2023-03-07T11:49:28.127Z,225.00
2023-03-07T11:50:28.107Z,208.12
2023-03-07T11:51:28.092Z,247.50
2023-03-07T11:52:28.091Z,281.25
2023-03-07T11:53:28.065Z,309.38
2023-03-07T11:54:28.090Z,281.25
2023-03-07T11:55:28.059Z,270.00
2023-03-07T11:56:28.046Z,275.62
2023-03-07T11:57:28.023Z,281.25
2023-03-07T11:58:28.043Z,275.62
2023-03-07T11:59:28.008Z,270.00
2023-03-07T12:00:28.012Z,264.38
2023-03-07T12:01:27.991Z,275.62
2023-03-07T12:02:28.097Z,286.88
2023-03-07T12:03:27.965Z,292.50
2023-03-07T12:04:27.956Z,270.00
2023-03-07T12:05:28.015Z,270.00
2023-03-07T12:06:27.932Z,281.25
2023-03-07T12:07:27.939Z,258.75
2023-03-07T12:08:27.923Z,281.25
2023-03-07T12:09:27.932Z,286.88
2023-03-07T12:10:27.903Z,275.62
2023-03-07T12:11:27.895Z,213.75
2023-03-07T12:12:27.888Z,191.25
2023-03-07T12:13:27.877Z,202.50
2023-03-07T12:14:27.874Z,202.50
2023-03-07T12:15:27.861Z,196.88
2023-03-07T12:16:27.914Z,196.88
2023-03-07T12:17:27.822Z,208.12
2023-03-07T12:18:27.829Z,236.25
2023-03-07T12:19:27.821Z,264.38
2023-03-07T12:20:27.803Z,241.88
2023-03-07T12:21:27.788Z,236.25
2023-03-07T12:22:27.781Z,236.25
2023-03-07T12:23:27.824Z,247.50
2023-03-07T12:24:27.749Z,270.00
2023-03-07T12:25:27.751Z,230.62
2023-03-07T12:26:27.745Z,191.25
2023-03-07T12:27:27.730Z,202.50
2023-03-07T12:28:27.734Z,202.50
2023-03-07T12:29:27.757Z,213.75
2023-03-07T12:30:27.703Z,236.25
2023-03-07T12:31:27.726Z,253.12
2023-03-07T12:32:28.000Z,253.12
2023-03-07T12:33:27.866Z,247.50
2023-03-07T12:34:27.656Z,236.25
2023-03-07T12:35:27.666Z,225.00
2023-03-07T12:36:27.736Z,213.75
2023-03-07T12:37:27.619Z,208.12
2023-03-07T12:38:27.624Z,230.62
2023-03-07T12:39:27.624Z,258.75
2023-03-07T12:40:27.602Z,241.88
2023-03-07T12:41:27.600Z,219.38
2023-03-07T12:42:27.640Z,202.50
2023-03-07T12:43:27.558Z,219.38
2023-03-07T12:44:27.541Z,253.12
2023-03-07T12:45:28.595Z,225.00
2023-03-07T12:46:27.567Z,247.50
2023-03-07T12:47:27.539Z,258.75
2023-03-07T12:48:27.509Z,258.75
2023-03-07T12:49:27.498Z,236.25
2023-03-07T12:50:27.490Z,258.75
2023-03-07T12:51:27.495Z,241.88
2023-03-07T12:52:27.474Z,219.38
2023-03-07T12:53:27.462Z,219.38
2023-03-07T12:54:27.452Z,241.88
2023-03-07T12:55:27.445Z,213.75
2023-03-07T12:56:27.458Z,174.38
2023-03-07T12:57:27.410Z,146.25